Time;durP1;ratioP1;P1;durP2;ratioP2;P2;SDS_P1;SDS_P2;PMS_P1;PMS_P2;Temp;Humidity;BMP_temperature;BMP_pressure;BME280_temperature;BME280_humidity;BME280_pressure;Samples;Min_cycle;Max_cycle;Signal;HPM_P1;HPM_P2
2022/04/09 00:00:11;;;;;;;11.93;1.75;;;3.70;99.90;;;;;;5045685;28;20073;-67
2022/04/09 00:02:37;;;;;;;9.75;1.65;;;3.70;99.90;;;;;;5040934;28;20067;-67
2022/04/09 00:05:03;;;;;;;18.02;1.52;;;3.70;99.90;;;;;;5045805;28;20037;-67
2022/04/09 00:07:28;;;;;;;9.40;1.83;;;3.70;99.90;;;;;;5042028;28;20090;-67
2022/04/09 00:09:55;;;;;;;11.93;1.73;;;3.70;99.90;;;;;;5049608;28;20029;-67
2022/04/09 00:12:20;;;;;;;11.40;1.98;;;3.70;99.90;;;;;;5047863;28;20037;-67
2022/04/09 00:14:46;;;;;;;10.63;1.77;;;3.70;99.90;;;;;;5054940;28;20047;-67
2022/04/09 00:17:12;;;;;;;11.00;1.65;;;3.70;99.90;;;;;;5047876;28;20120;-67
2022/04/09 00:19:37;;;;;;;7.53;1.23;;;3.70;99.90;;;;;;5048675;28;20099;-67
2022/04/09 00:22:04;;;;;;;7.68;1.45;;;3.80;99.90;;;;;;5047851;28;20115;-67
2022/04/09 00:24:30;;;;;;;13.95;1.90;;;3.90;99.90;;;;;;5049690;28;20540;-67
2022/04/09 00:26:55;;;;;;;8.73;1.90;;;3.90;99.90;;;;;;5044692;28;20102;-67
2022/04/09 00:29:21;;;;;;;10.00;1.77;;;3.80;99.90;;;;;;5048366;28;20028;-67
2022/04/09 00:31:47;;;;;;;11.65;1.75;;;3.80;99.90;;;;;;5048954;28;20488;-67
2022/04/09 00:34:13;;;;;;;9.95;2.00;;;3.80;99.90;;;;;;5046564;28;20454;-67
2022/04/09 00:36:38;;;;;;;8.73;1.60;;;3.70;99.90;;;;;;5048474;28;20040;-67
2022/04/09 00:39:04;;;;;;;10.73;1.60;;;3.80;99.90;;;;;;5046953;28;20083;-67
2022/04/09 00:41:30;;;;;;;12.38;1.95;;;3.80;99.90;;;;;;5050551;28;20069;-67
2022/04/09 00:43:56;;;;;;;10.70;1.40;;;3.70;99.90;;;;;;5048430;28;20068;-67
2022/04/09 00:46:22;;;;;;;11.10;1.67;;;3.70;99.90;;;;;;5046086;28;20064;-67
2022/04/09 00:48:48;;;;;;;6.68;1.70;;;3.70;99.90;;;;;;5047514;28;20040;-67
2022/04/09 00:51:13;;;;;;;11.10;2.13;;;3.70;99.90;;;;;;5051721;28;20033;-67
2022/04/09 00:53:41;;;;;;;11.20;1.70;;;3.80;99.90;;;;;;5046430;28;20037;-67
2022/04/09 00:56:16;;;;;;;7.45;2.00;;;3.70;99.90;;;;;;5047002;28;20714;-67
2022/04/09 00:58:55;;;;;;;8.35;1.70;;;3.70;99.90;;;;;;5046438;28;20120;-67
2022/04/09 01:01:27;;;;;;;11.93;2.10;;;3.70;99.90;;;;;;5044230;28;20064;-67
2022/04/09 01:03:54;;;;;;;9.00;1.60;;;3.70;99.90;;;;;;5047365;28;20140;-67
2022/04/09 01:06:20;;;;;;;7.65;1.60;;;3.70;99.90;;;;;;5048183;28;20041;-67
2022/04/09 01:08:46;;;;;;;13.27;1.88;;;3.70;99.90;;;;;;5048243;28;20065;-67
2022/04/09 01:11:13;;;;;;;9.95;1.40;;;3.70;99.90;;;;;;5049417;28;20037;-67
2022/04/09 01:13:39;;;;;;;8.50;1.65;;;3.70;99.90;;;;;;5049778;28;20481;-67
2022/04/09 01:16:05;;;;;;;13.57;1.83;;;3.70;99.90;;;;;;5048103;28;20041;-67
2022/04/09 01:18:33;;;;;;;8.90;1.60;;;3.70;99.90;;;;;;5048637;28;20040;-67
2022/04/09 01:21:00;;;;;;;6.28;1.77;;;3.60;99.90;;;;;;5046496;28;20333;-67
2022/04/09 01:23:26;;;;;;;8.68;1.27;;;3.70;99.90;;;;;;5049792;28;20045;-67
2022/04/09 01:25:52;;;;;;;13.77;1.83;;;3.70;99.90;;;;;;5046829;28;20138;-67
2022/04/09 01:28:18;;;;;;;9.20;1.67;;;3.70;99.90;;;;;;5048089;28;20091;-67
2022/04/09 01:30:44;;;;;;;9.13;1.65;;;3.70;99.90;;;;;;5045177;28;20072;-67
2022/04/09 01:33:20;;;;;;;9.15;1.92;;;3.80;99.90;;;;;;5048060;28;20552;-67
2022/04/09 01:35:47;;;;;;;11.43;1.95;;;3.80;99.90;;;;;;5046542;28;20106;-67
2022/04/09 01:38:13;;;;;;;10.15;1.70;;;3.90;99.90;;;;;;5049049;28;20036;-67
2022/04/09 01:40:40;;;;;;;9.88;1.77;;;3.90;99.90;;;;;;5047536;28;20041;-67
2022/04/09 01:43:06;;;;;;;12.45;2.03;;;3.90;99.90;;;;;;5051162;28;20116;-67
2022/04/09 01:45:32;;;;;;;8.70;1.65;;;3.90;99.90;;;;;;5045791;28;20132;-67
2022/04/09 01:47:58;;;;;;;10.70;1.40;;;3.90;99.90;;;;;;5047432;28;20108;-67
2022/04/09 01:50:26;;;;;;;12.90;2.17;;;3.90;99.90;;;;;;5046925;28;20386;-67
2022/04/09 01:52:55;;;;;;;10.55;1.52;;;3.80;99.90;;;;;;5045012;28;20033;-67
2022/04/09 01:55:21;;;;;;;9.00;1.63;;;3.80;99.90;;;;;;5047208;28;20748;-67
2022/04/09 01:57:48;;;;;;;10.38;1.70;;;3.80;99.90;;;;;;5046882;28;20037;-67
2022/04/09 02:00:16;;;;;;;9.38;2.00;;;3.70;99.90;;;;;;5079726;28;20465;-67
2022/04/09 02:02:43;;;;;;;9.73;1.52;;;3.70;99.90;;;;;;5045223;28;20045;-67
2022/04/09 02:05:11;;;;;;;12.95;2.17;;;3.70;99.90;;;;;;5047507;28;20080;-67
2022/04/09 02:07:37;;;;;;;8.70;1.70;;;3.60;99.90;;;;;;5046214;28;20036;-67
2022/04/09 02:10:05;;;;;;;9.13;1.70;;;3.50;99.90;;;;;;5047116;28;20415;-67
2022/04/09 02:12:31;;;;;;;10.05;1.80;;;3.50;99.90;;;;;;5047328;28;20033;-67
2022/04/09 02:14:57;;;;;;;9.93;1.52;;;3.40;99.90;;;;;;5053485;28;20444;-67
2022/04/09 02:17:22;;;;;;;7.28;1.38;;;3.40;99.90;;;;;;5045783;28;20084;-67
2022/04/09 02:19:48;;;;;;;6.00;1.23;;;3.30;99.90;;;;;;5044980;28;20542;-67
2022/04/09 02:22:14;;;;;;;9.75;1.50;;;3.20;99.90;;;;;;5046315;28;20567;-67
2022/04/09 02:24:40;;;;;;;8.05;1.15;;;3.20;99.90;;;;;;5028238;28;20049;-67
2022/04/09 02:27:06;;;;;;;6.47;1.45;;;3.20;99.90;;;;;;5046232;28;20045;-67
2022/04/09 02:29:32;;;;;;;4.68;0.77;;;3.20;99.90;;;;;;5048364;28;20120;-67
2022/04/09 02:32:00;;;;;;;6.28;0.82;;;3.10;99.90;;;;;;5047374;28;20488;-67
2022/04/09 02:34:26;;;;;;;8.48;0.95;;;3.10;99.90;;;;;;5050494;28;20028;-67
2022/04/09 02:36:51;;;;;;;8.30;0.82;;;3.00;99.90;;;;;;5047341;28;20481;-67
2022/04/09 02:39:21;;;;;;;3.85;0.93;;;3.00;99.90;;;;;;5048182;28;20058;-67
2022/04/09 02:41:48;;;;;;;5.35;0.60;;;3.00;99.90;;;;;;5050515;28;20049;-67
2022/04/09 02:44:14;;;;;;;9.05;0.80;;;3.00;99.90;;;;;;5047869;28;20076;-67
2022/04/09 02:46:39;;;;;;;5.90;0.95;;;2.90;99.90;;;;;;5048599;28;20341;-67
2022/04/09 02:49:05;;;;;;;4.78;0.60;;;2.90;99.90;;;;;;5047142;28;20057;-67
2022/04/09 02:51:31;;;;;;;5.75;1.00;;;2.90;99.90;;;;;;5048899;28;20056;-66
2022/04/09 02:53:56;;;;;;;4.20;0.82;;;2.90;99.90;;;;;;5050037;28;20059;-66
2022/04/09 02:56:22;;;;;;;4.60;0.80;;;2.80;99.90;;;;;;5050120;28;20059;-66
2022/04/09 02:58:48;;;;;;;5.82;0.80;;;2.80;99.90;;;;;;5032056;28;20080;-66
2022/04/09 03:01:13;;;;;;;6.32;1.02;;;2.90;99.90;;;;;;5048920;28;20040;-66
2022/04/09 03:03:39;;;;;;;6.38;0.80;;;2.80;99.90;;;;;;5049999;28;20048;-66
2022/04/09 03:06:05;;;;;;;9.45;1.00;;;3.00;99.90;;;;;;5049459;28;20123;-66
2022/04/09 03:08:30;;;;;;;4.30;0.93;;;2.90;99.90;;;;;;5050247;28;20381;-66
2022/04/09 03:10:56;;;;;;;6.03;0.93;;;2.90;99.90;;;;;;5049927;28;20120;-66
2022/04/09 03:13:22;;;;;;;9.07;0.80;;;2.90;99.90;;;;;;5050094;28;20415;-66
2022/04/09 03:15:47;;;;;;;8.75;1.15;;;3.00;99.90;;;;;;5047567;28;20466;-66
2022/04/09 03:18:13;;;;;;;6.60;1.20;;;2.90;99.90;;;;;;5047890;28;20056;-66
2022/04/09 03:20:38;;;;;;;6.57;1.05;;;2.90;99.90;;;;;;5048641;28;20048;-66
2022/04/09 03:23:04;;;;;;;6.75;1.00;;;3.00;99.90;;;;;;5049887;28;20045;-66
2022/04/09 03:25:30;;;;;;;10.15;1.30;;;2.90;99.90;;;;;;5049375;28;20063;-66
2022/04/09 03:27:56;;;;;;;5.57;0.80;;;3.00;99.90;;;;;;5049950;28;20044;-66
2022/04/09 03:30:21;;;;;;;7.38;1.27;;;3.00;99.90;;;;;;5049845;28;20457;-66
2022/04/09 03:32:47;;;;;;;8.13;0.90;;;3.00;99.90;;;;;;5047530;28;20087;-66
2022/04/09 03:35:13;;;;;;;7.25;1.00;;;3.00;99.90;;;;;;5050059;28;20082;-67
2022/04/09 03:37:40;;;;;;;7.78;0.80;;;3.00;99.90;;;;;;5049218;28;20548;-66
2022/04/09 03:40:07;;;;;;;9.48;1.33;;;3.00;99.90;;;;;;5048810;28;20533;-66
2022/04/09 03:42:33;;;;;;;6.40;1.02;;;3.00;99.90;;;;;;5051192;28;20128;-66
2022/04/09 03:44:59;;;;;;;6.32;0.85;;;3.00;99.90;;;;;;5053537;28;20544;-66
2022/04/09 03:47:25;;;;;;;7.53;1.00;;;3.00;99.90;;;;;;5052650;28;20095;-66
2022/04/09 03:49:51;;;;;;;7.82;1.10;;;3.00;99.90;;;;;;5053204;28;20562;-66
2022/04/09 03:52:17;;;;;;;4.90;0.75;;;2.90;99.90;;;;;;5052061;28;20049;-66
2022/04/09 03:54:42;;;;;;;6.40;0.90;;;2.90;99.90;;;;;;5050718;28;20128;-66
2022/04/09 03:57:11;;;;;;;5.13;0.60;;;2.90;99.90;;;;;;5052932;28;20051;-67
2022/04/09 03:59:37;;;;;;;6.82;1.05;;;3.00;99.90;;;;;;5051151;28;20087;-67
2022/04/09 04:02:03;;;;;;;6.30;0.88;;;3.00;99.90;;;;;;5053946;28;20144;-67
2022/04/09 04:04:29;;;;;;;6.18;0.70;;;3.00;99.90;;;;;;5053090;28;20072;-67
2022/04/09 04:06:54;;;;;;;6.40;0.70;;;3.10;99.90;;;;;;5052747;28;20052;-67
2022/04/09 04:09:20;;;;;;;7.38;0.95;;;3.20;99.90;;;;;;5048530;28;20080;-67
2022/04/09 04:11:46;;;;;;;3.72;0.63;;;3.20;99.90;;;;;;5067630;28;20128;-67
2022/04/09 04:14:12;;;;;;;8.85;1.00;;;3.30;99.90;;;;;;5052958;28;20044;-67
2022/04/09 04:16:40;;;;;;;5.35;0.73;;;3.30;99.90;;;;;;5051423;28;20037;-67
2022/04/09 04:19:06;;;;;;;3.92;0.40;;;3.20;99.90;;;;;;5051199;28;20087;-67
2022/04/09 04:21:31;;;;;;;3.40;0.57;;;3.20;99.90;;;;;;5052509;28;20036;-67
2022/04/09 04:23:57;;;;;;;3.45;0.50;;;3.10;99.90;;;;;;5052844;28;20379;-67
2022/04/09 04:26:23;;;;;;;4.47;0.63;;;3.00;99.90;;;;;;5050244;28;20057;-67
2022/04/09 04:28:48;;;;;;;4.35;0.93;;;3.00;99.90;;;;;;5052975;28;20035;-67
2022/04/09 04:31:18;;;;;;;4.05;0.63;;;2.90;99.90;;;;;;5050150;28;20103;-67
2022/04/09 04:33:44;;;;;;;4.47;0.73;;;2.90;99.90;;;;;;5052775;28;20120;-67
2022/04/09 04:36:10;;;;;;;3.00;0.65;;;2.80;99.90;;;;;;5050990;28;20036;-67
2022/04/09 04:38:36;;;;;;;7.45;0.77;;;2.80;99.90;;;;;;5052187;28;20515;-67
2022/04/09 04:41:04;;;;;;;6.22;1.08;;;2.80;99.90;;;;;;5051370;28;20094;-67
2022/04/09 04:43:30;;;;;;;5.32;1.30;;;2.70;99.90;;;;;;5051944;28;20041;-67
2022/04/09 04:45:56;;;;;;;7.25;1.10;;;2.70;99.90;;;;;;5051264;28;20108;-67
2022/04/09 04:48:22;;;;;;;6.68;1.00;;;2.70;99.90;;;;;;5052155;28;20037;-67
2022/04/09 04:50:47;;;;;;;9.40;1.00;;;2.70;99.90;;;;;;5052093;28;20103;-67
2022/04/09 04:53:13;;;;;;;9.10;1.23;;;2.80;99.90;;;;;;5051409;28;20457;-67
2022/04/09 04:55:40;;;;;;;6.72;1.02;;;2.80;99.90;;;;;;5050450;28;20098;-67
2022/04/09 04:58:05;;;;;;;9.30;1.10;;;2.80;99.90;;;;;;5049656;28;20110;-67
2022/04/09 05:00:31;;;;;;;3.95;0.60;;;2.80;99.90;;;;;;5051422;28;20489;-67
2022/04/09 05:03:00;;;;;;;8.48;0.70;;;2.90;99.90;;;;;;5052336;28;20388;-67
2022/04/09 05:05:26;;;;;;;6.63;1.13;;;3.00;99.90;;;;;;5051417;28;20048;-66
2022/04/09 05:07:53;;;;;;;9.02;0.82;;;3.00;99.90;;;;;;5051606;28;20170;-67
2022/04/09 05:10:20;;;;;;;7.88;1.00;;;3.10;99.90;;;;;;5052083;28;20040;-66
2022/04/09 05:12:47;;;;;;;7.43;1.27;;;3.20;99.90;;;;;;5051489;28;20064;-66
2022/04/09 05:15:15;;;;;;;5.15;1.15;;;3.30;99.90;;;;;;5050304;28;20048;-66
2022/04/09 05:17:41;;;;;;;7.80;0.85;;;3.40;99.90;;;;;;5050495;28;20068;-67
2022/04/09 05:20:09;;;;;;;6.50;0.90;;;3.40;99.90;;;;;;5052311;28;20354;-67
2022/04/09 05:22:37;;;;;;;7.70;1.33;;;3.30;99.90;;;;;;5048004;28;20350;-67
2022/04/09 05:25:04;;;;;;;5.10;1.00;;;3.30;99.90;;;;;;5050272;28;20041;-67
2022/04/09 05:27:30;;;;;;;5.93;1.00;;;3.20;99.90;;;;;;5051320;28;20045;-67
2022/04/09 05:29:56;;;;;;;9.20;1.40;;;3.20;99.90;;;;;;5049912;28;20033;-67
2022/04/09 05:32:22;;;;;;;9.20;1.15;;;3.20;99.90;;;;;;5050074;28;20040;-67
2022/04/09 05:34:48;;;;;;;10.05;1.52;;;3.20;99.90;;;;;;5049883;28;20040;-67
2022/04/09 05:37:14;;;;;;;5.10;0.80;;;3.20;99.90;;;;;;5051112;28;20115;-67
2022/04/09 05:39:42;;;;;;;5.97;0.77;;;3.30;99.90;;;;;;5052034;28;20159;-67
2022/04/09 05:42:09;;;;;;;12.52;1.50;;;3.40;99.90;;;;;;5051599;28;20350;-67
2022/04/09 05:44:34;;;;;;;9.43;1.23;;;3.60;99.90;;;;;;5050125;28;20080;-67
2022/04/09 05:47:00;;;;;;;10.15;0.80;;;3.80;99.90;;;;;;5050595;28;20498;-67
2022/04/09 05:49:26;;;;;;;8.60;1.13;;;3.90;99.90;;;;;;5050960;28;20119;-67
2022/04/09 05:51:52;;;;;;;5.22;0.90;;;4.10;99.90;;;;;;5056575;28;20053;-67
2022/04/09 05:54:18;;;;;;;4.57;0.95;;;4.40;99.90;;;;;;5051762;28;20480;-67
2022/04/09 05:56:44;;;;;;;7.15;0.77;;;4.70;99.90;;;;;;5050978;28;20041;-67
2022/04/09 05:59:09;;;;;;;8.05;0.95;;;4.90;99.90;;;;;;5051524;28;20035;-67
2022/04/09 06:01:35;;;;;;;9.52;1.30;;;4.90;99.90;;;;;;5054561;28;20044;-66
2022/04/09 06:04:01;;;;;;;5.32;0.77;;;4.90;99.90;;;;;;5050974;28;20205;-66
2022/04/09 06:06:27;;;;;;;5.25;0.63;;;4.80;99.90;;;;;;5048793;28;20041;-67
2022/04/09 06:08:53;;;;;;;7.40;0.90;;;4.80;99.90;;;;;;5049616;28;20311;-67
2022/04/09 06:11:19;;;;;;;2.95;0.60;;;4.70;99.90;;;;;;5049786;28;20116;-67
2022/04/09 06:13:45;;;;;;;9.00;1.08;;;4.70;99.90;;;;;;5051231;28;20120;-67
2022/04/09 06:16:11;;;;;;;9.75;1.30;;;4.70;99.90;;;;;;5046588;28;20419;-67
2022/04/09 06:18:38;;;;;;;11.48;2.20;;;4.60;99.90;;;;;;5048375;28;20492;-67
2022/04/09 06:21:07;;;;;;;7.57;1.10;;;4.70;99.90;;;;;;5050789;28;20079;-66
2022/04/09 06:23:33;;;;;;;9.35;2.03;;;4.80;99.90;;;;;;5049721;28;20041;-66
2022/04/09 06:25:59;;;;;;;5.22;1.30;;;4.90;99.90;;;;;;5032559;28;20063;-66
2022/04/09 06:28:25;;;;;;;7.50;1.25;;;4.90;99.90;;;;;;5050045;28;20073;-66
2022/04/09 06:30:52;;;;;;;6.40;1.33;;;5.10;99.90;;;;;;5049668;28;20036;-66
2022/04/09 06:33:18;;;;;;;9.43;1.48;;;5.20;99.90;;;;;;5050446;28;20119;-66
2022/04/09 06:35:43;;;;;;;5.95;1.13;;;5.40;99.90;;;;;;5048735;28;20525;-66
2022/04/09 06:38:09;;;;;;;8.70;1.60;;;5.50;99.90;;;;;;5050105;28;20061;-66
2022/04/09 06:40:35;;;;;;;7.38;1.55;;;5.60;99.90;;;;;;5049448;28;20090;-66
2022/04/09 06:43:01;;;;;;;5.03;1.35;;;5.80;99.90;;;;;;5048191;28;20045;-66
2022/04/09 06:45:26;;;;;;;8.75;1.90;;;5.80;99.90;;;;;;5048366;28;20064;-66
2022/04/09 06:47:52;;;;;;;6.32;1.60;;;6.00;99.90;;;;;;5047295;28;20055;-66
2022/04/09 06:50:18;;;;;;;9.73;1.60;;;6.10;99.90;;;;;;5049906;28;20036;-66
2022/04/09 06:52:45;;;;;;;12.00;2.22;;;6.30;99.90;;;;;;5048336;28;20099;-66
2022/04/09 06:55:10;;;;;;;13.48;1.95;;;6.50;99.90;;;;;;5067104;28;20136;-66
2022/04/09 06:57:41;;;;;;;11.80;2.25;;;6.70;99.90;;;;;;5049446;28;20045;-66
2022/04/09 07:00:12;;;;;;;9.43;1.67;;;7.00;99.90;;;;;;5048473;28;20056;-67
2022/04/09 07:02:38;;;;;;;9.73;1.52;;;7.30;99.90;;;;;;5046240;28;20476;-67
2022/04/09 07:05:05;;;;;;;11.30;1.45;;;7.30;99.90;;;;;;5049777;28;20037;-67
2022/04/09 07:07:30;;;;;;;12.65;1.92;;;7.10;99.90;;;;;;5049345;28;20041;-66
2022/04/09 07:10:05;;;;;;;9.57;1.55;;;6.90;99.90;;;;;;5047663;28;20467;-67
2022/04/09 07:12:31;;;;;;;;;;;6.70;99.90;;;;;;5048967;28;20069;-67
2022/04/09 07:14:57;;;;;;;11.63;1.40;;;6.40;99.90;;;;;;5047722;28;19971;-67
2022/04/09 07:17:24;;;;;;;6.55;1.23;;;6.30;99.90;;;;;;5065154;28;20730;-67
2022/04/09 07:19:50;;;;;;;8.70;1.33;;;6.30;99.90;;;;;;5049068;28;20110;-67
2022/04/09 07:22:16;;;;;;;6.90;0.93;;;6.60;99.90;;;;;;5045912;28;20430;-67
2022/04/09 07:24:42;;;;;;;4.55;0.80;;;7.00;99.90;;;;;;5046923;28;20140;-67
2022/04/09 07:27:09;;;;;;;8.55;1.15;;;7.70;99.90;;;;;;5046758;28;20049;-67
2022/04/09 07:29:35;;;;;;;6.60;1.15;;;8.50;99.90;;;;;;5047974;28;20044;-67
2022/04/09 07:32:00;;;;;;;6.38;1.23;;;9.00;99.90;;;;;;5046995;28;20045;-67
2022/04/09 07:34:26;;;;;;;4.97;0.98;;;9.60;99.90;;;;;;5047602;28;20129;-68
2022/04/09 07:36:52;;;;;;;6.40;1.00;;;10.20;99.90;;;;;;5046942;28;20365;-67
2022/04/09 07:39:17;;;;;;;7.28;1.10;;;10.40;99.90;;;;;;5051188;28;20411;-67
2022/04/09 07:41:43;;;;;;;7.78;1.20;;;10.70;99.90;;;;;;5049505;28;20039;-67
2022/04/09 07:44:09;;;;;;;9.13;1.50;;;11.10;99.90;;;;;;5049234;28;20033;-67
2022/04/09 07:46:35;;;;;;;5.53;1.00;;;11.40;99.90;;;;;;5048619;28;20564;-67
2022/04/09 07:49:00;;;;;;;6.03;0.85;;;11.40;99.90;;;;;;5050768;28;20067;-67
2022/04/09 07:51:26;;;;;;;9.80;1.33;;;11.40;99.90;;;;;;5048252;28;20137;-67
2022/04/09 07:53:52;;;;;;;5.82;1.13;;;11.70;99.90;;;;;;5049909;28;20033;-67
2022/04/09 07:56:18;;;;;;;8.90;1.30;;;11.50;99.90;;;;;;5053798;28;20088;-67
2022/04/09 07:58:43;;;;;;;9.02;1.25;;;11.10;99.30;;;;;;5047956;28;20044;-68
2022/04/09 08:01:09;;;;;;;6.68;1.30;;;11.00;98.00;;;;;;5049768;28;20479;-67
2022/04/09 08:03:35;;;;;;;9.82;1.35;;;11.60;98.80;;;;;;5047602;28;20057;-68
2022/04/09 08:06:00;;;;;;;6.82;1.17;;;11.80;96.80;;;;;;5048291;28;20060;-67
2022/04/09 08:08:26;;;;;;;5.43;0.77;;;11.80;96.40;;;;;;5046770;28;20068;-67
2022/04/09 08:10:52;;;;;;;6.95;0.63;;;11.70;93.20;;;;;;5050804;28;20033;-68
2022/04/09 08:13:18;;;;;;;6.88;0.88;;;11.80;94.20;;;;;;5049782;28;20040;-68
2022/04/09 08:15:44;;;;;;;7.20;1.30;;;12.20;95.20;;;;;;5048910;28;20045;-67
2022/04/09 08:18:11;;;;;;;6.80;0.90;;;12.30;93.30;;;;;;5047779;28;20060;-67
2022/04/09 08:20:37;;;;;;;6.43;0.80;;;12.50;93.10;;;;;;5049293;28;20088;-67
2022/04/09 08:23:04;;;;;;;6.25;1.10;;;12.60;90.60;;;;;;5048218;28;20045;-68
2022/04/09 08:25:30;;;;;;;6.30;0.85;;;12.60;91.60;;;;;;5048365;28;20127;-68
2022/04/09 08:27:56;;;;;;;6.88;1.10;;;12.90;91.20;;;;;;5047762;28;20576;-68
2022/04/09 08:30:23;;;;;;;7.85;0.93;;;12.90;89.20;;;;;;5053460;28;20048;-67
2022/04/09 08:32:50;;;;;;;4.55;1.25;;;12.80;89.60;;;;;;5049954;28;20116;-68
2022/04/09 08:35:16;;;;;;;7.15;0.98;;;12.60;88.00;;;;;;5051825;28;20033;-68
2022/04/09 08:37:42;;;;;;;8.48;1.33;;;12.20;89.00;;;;;;5052097;28;20095;-67
2022/04/09 08:40:14;;;;;;;5.05;0.80;;;11.30;89.60;;;;;;5053196;28;20040;-67
2022/04/09 08:42:39;;;;;;;8.35;1.00;;;10.60;89.50;;;;;;5049041;28;20114;-67
2022/04/09 08:45:06;;;;;;;4.85;0.90;;;10.30;91.30;;;;;;5054031;28;20045;-66
2022/04/09 08:47:33;;;;;;;5.03;1.05;;;11.20;92.30;;;;;;5050724;28;20048;-67
2022/04/09 08:49:59;;;;;;;4.38;0.85;;;11.60;88.20;;;;;;5085525;28;20531;-69
2022/04/09 08:52:26;;;;;;;4.80;0.77;;;11.20;83.80;;;;;;5053102;28;20041;-69
2022/04/09 08:54:52;;;;;;;4.38;0.47;;;11.40;85.40;;;;;;5051746;28;20072;-69
2022/04/09 08:57:17;;;;;;;3.45;0.57;;;12.10;87.50;;;;;;5051417;28;20072;-69
2022/04/09 08:59:43;;;;;;;5.55;0.98;;;12.20;80.30;;;;;;5052541;28;20041;-68
2022/04/09 09:02:09;;;;;;;3.15;0.40;;;12.50;82.90;;;;;;5047372;28;20063;-68
2022/04/09 09:04:35;;;;;;;7.07;1.00;;;12.70;82.10;;;;;;5050158;28;20045;-68
2022/04/09 09:07:20;;;;;;;6.00;1.13;;;12.50;81.60;;;;;;5052837;28;20044;-68
2022/04/09 09:09:47;;;;;;;5.68;0.90;;;12.40;78.10;;;;;;5049174;28;20045;-68
2022/04/09 09:12:29;;;;;;;3.72;0.73;;;12.40;79.80;;;;;;5052853;28;20362;-69
2022/04/09 09:14:56;;;;;;;6.20;3.78;;;12.00;78.10;;;;;;5048950;28;20094;-68
2022/04/09 09:17:31;;;;;;;4.93;0.77;;;11.60;82.00;;;;;;5048685;28;20052;-68
2022/04/09 09:19:57;;;;;;;6.30;0.77;;;11.80;81.00;;;;;;5051199;28;20164;-68
2022/04/09 09:22:38;;;;;;;3.33;0.50;;;12.30;81.20;;;;;;5051170;28;20068;-69
2022/04/09 09:25:10;;;;;;;5.72;0.75;;;12.30;78.20;;;;;;5046808;28;20476;-69
2022/04/09 09:27:36;;;;;;;5.82;1.00;;;11.90;82.80;;;;;;5050053;28;20044;-69
2022/04/09 09:30:07;;;;;;;5.97;0.80;;;11.80;80.00;;;;;;5048262;28;20393;-69
2022/04/09 09:32:34;;;;;;;4.63;0.70;;;11.50;82.50;;;;;;5049163;28;20041;-68
2022/04/09 09:35:01;;;;;;;5.38;0.82;;;11.50;82.30;;;;;;5049020;28;20112;-68
2022/04/09 09:37:29;;;;;;;4.88;0.95;;;11.60;82.40;;;;;;5052024;28;20045;-68
2022/04/09 09:39:56;;;;;;;7.40;1.27;;;11.60;83.70;;;;;;5045895;28;20056;-68
2022/04/09 09:42:23;;;;;;;5.20;1.00;;;11.70;81.60;;;;;;5051214;28;20037;-68
2022/04/09 09:44:50;;;;;;;5.57;0.77;;;11.80;80.70;;;;;;5048067;28;20408;-68
2022/04/09 09:47:16;;;;;;;6.90;1.17;;;11.40;80.30;;;;;;5033441;28;20415;-68
2022/04/09 09:49:47;;;;;;;6.43;1.13;;;11.50;82.30;;;;;;5049005;28;20112;-68
2022/04/09 09:52:14;;;;;;;6.47;1.00;;;12.30;84.50;;;;;;5050304;28;20055;-69
2022/04/09 09:54:56;;;;;;;6.15;1.45;;;12.70;78.70;;;;;;5047577;28;20385;-68
2022/04/09 09:57:24;;;;;;;6.90;1.08;;;13.10;76.00;;;;;;5049045;28;20040;-68
2022/04/09 09:59:52;;;;;;;5.07;1.10;;;13.20;76.00;;;;;;5051131;28;20128;-68
2022/04/09 10:02:21;;;;;;;7.05;1.55;;;13.40;76.50;;;;;;5051257;28;20040;-68
2022/04/09 10:04:47;;;;;;;7.75;1.10;;;13.60;77.70;;;;;;5051847;28;20587;-68
2022/04/09 10:07:20;;;;;;;4.95;0.90;;;13.80;78.40;;;;;;5048544;28;20037;-69
2022/04/09 10:09:49;;;;;;;5.15;1.00;;;13.70;74.20;;;;;;5049166;28;20167;-68
2022/04/09 10:12:21;;;;;;;5.47;0.90;;;12.20;75.90;;;;;;5048659;28;20083;-69
2022/04/09 10:14:49;;;;;;;5.47;0.88;;;11.10;80.10;;;;;;5051366;28;20754;-69
2022/04/09 10:17:18;;;;;;;6.60;0.60;;;10.40;83.50;;;;;;5050313;28;20178;-69
2022/04/09 10:19:48;;;;;;;5.40;0.85;;;9.60;84.30;;;;;;5051030;28;20037;-69
2022/04/09 10:22:15;;;;;;;3.63;0.77;;;9.20;87.40;;;;;;5050109;28;20368;-69
2022/04/09 10:24:41;;;;;;;4.15;0.60;;;9.30;89.40;;;;;;5029840;28;20551;-68
2022/04/09 10:27:08;;;;;;;4.28;0.43;;;9.50;87.30;;;;;;5030342;28;20049;-69
2022/04/09 10:29:49;;;;;;;4.07;0.70;;;10.10;88.50;;;;;;5049655;28;20473;-69
2022/04/09 10:32:52;;;;;;;5.72;0.90;;;10.90;90.00;;;;;;5030722;28;20122;-69
2022/04/09 10:35:28;;;;;;;6.53;1.00;;;11.90;86.10;;;;;;5030619;28;20072;-69
2022/04/09 10:38:09;;;;;;;5.22;0.73;;;12.40;83.40;;;;;;5045904;28;20084;-69
2022/04/09 10:40:52;;;;;;;6.57;1.85;;;13.00;84.40;;;;;;5078708;28;20088;-69
2022/04/09 10:43:28;;;;;;;4.18;0.95;;;13.60;75.90;;;;;;5047162;28;20119;-69
2022/04/09 10:46:00;;;;;;;6.90;1.48;;;13.40;72.50;;;;;;5062900;28;20045;-69
2022/04/09 10:48:30;;;;;;;6.07;0.98;;;12.80;78.60;;;;;;5049605;28;20033;-69
2022/04/09 10:51:04;;;;;;;3.25;0.60;;;11.90;79.40;;;;;;5045533;28;20072;-71
2022/04/09 10:53:41;;;;;;;2.90;0.47;;;10.50;83.90;;;;;;5046478;28;20168;-69
2022/04/09 10:56:29;;;;;;;1.58;0.20;;;9.30;90.60;;;;;;5045823;28;20053;-70
2022/04/09 10:59:08;;;;;;;1.83;0.20;;;8.30;91.90;;;;;;5047813;28;20580;-70
2022/04/09 11:01:46;;;;;;;2.60;0.40;;;7.50;93.30;;;;;;5078562;28;20065;-70
2022/04/09 11:04:36;;;;;;;3.63;0.50;;;7.00;94.90;;;;;;5047616;28;20164;-70
2022/04/09 11:07:02;;;;;;;1.95;0.50;;;6.60;96.50;;;;;;5046422;28;20037;-70
2022/04/09 11:09:45;;;;;;;3.15;0.47;;;6.30;97.20;;;;;;5047013;28;20045;-70
2022/04/09 11:12:12;;;;;;;5.95;0.70;;;6.30;99.10;;;;;;5046149;28;20120;-70
2022/04/09 11:15:02;;;;;;;5.47;0.60;;;6.60;99.90;;;;;;5046752;28;20048;-70
2022/04/09 11:17:28;;;;;;;5.53;0.60;;;7.10;99.90;;;;;;5045100;28;20481;-70
2022/04/09 11:19:56;;;;;;;4.38;0.55;;;7.50;99.90;;;;;;5045948;28;20064;-70
2022/04/09 11:22:33;;;;;;;5.28;1.10;;;8.20;99.90;;;;;;5031423;28;20053;-70
2022/04/09 11:24:59;;;;;;;4.93;0.73;;;9.10;99.90;;;;;;5047315;28;20079;-70
2022/04/09 11:27:27;;;;;;;5.18;0.90;;;9.90;99.90;;;;;;5048224;28;20402;-70
2022/04/09 11:29:54;;;;;;;5.22;1.23;;;10.40;98.20;;;;;;5046006;28;20049;-69
2022/04/09 11:32:21;;;;;;;5.93;1.08;;;10.80;96.70;;;;;;5047970;28;20077;-70
2022/04/09 11:34:58;;;;;;;5.85;0.77;;;10.80;95.30;;;;;;5029351;28;20044;-70
2022/04/09 11:37:32;;;;;;;8.88;1.05;;;10.90;97.10;;;;;;5045142;28;20052;-70
2022/04/09 11:40:05;;;;;;;7.13;1.15;;;10.90;96.50;;;;;;5030335;28;20148;-70
2022/04/09 11:42:52;;;;;;;8.57;1.20;;;10.80;96.30;;;;;;5046692;28;20049;-70
2022/04/09 11:45:19;;;;;;;8.65;1.58;;;10.40;95.40;;;;;;5080404;28;20053;-70
2022/04/09 11:47:46;;;;;;;7.72;1.20;;;10.00;95.80;;;;;;5045367;28;20500;-69
2022/04/09 11:50:13;;;;;;;6.93;1.15;;;9.70;96.50;;;;;;5046141;28;20071;-70
2022/04/09 11:52:40;;;;;;;5.65;1.15;;;9.80;96.10;;;;;;5047832;28;20618;-70
2022/04/09 11:55:09;;;;;;;8.75;1.25;;;9.80;96.20;;;;;;5046546;28;20068;-71
2022/04/09 11:57:46;;;;;;;4.90;0.80;;;10.40;96.70;;;;;;5042645;28;20424;-69
2022/04/09 12:00:13;;;;;;;4.80;0.70;;;10.90;95.40;;;;;;5044750;28;20144;-69
2022/04/09 12:02:39;;;;;;;5.60;0.80;;;11.30;94.20;;;;;;5049454;28;20087;-69
2022/04/09 12:05:10;;;;;;;6.70;0.60;;;11.50;93.50;;;;;;5052677;28;20516;-70
2022/04/09 12:07:40;;;;;;;6.28;0.88;;;11.90;92.30;;;;;;5050536;28;20114;-70
2022/04/09 12:10:06;;;;;;;4.10;0.65;;;12.30;91.90;;;;;;5052607;28;20037;-70
2022/04/09 12:12:38;;;;;;;4.70;0.63;;;12.40;90.60;;;;;;5052354;28;20052;-70
2022/04/09 12:15:04;;;;;;;4.70;0.88;;;12.50;90.80;;;;;;5081815;28;20056;-70
2022/04/09 12:17:34;;;;;;;4.32;0.90;;;12.90;90.50;;;;;;5050360;28;20063;-70
2022/04/09 12:20:32;;;;;;;5.32;0.63;;;13.30;86.50;;;;;;5049615;28;20060;-70
2022/04/09 12:22:58;;;;;;;3.83;0.88;;;13.60;85.60;;;;;;5047880;28;20182;-69
2022/04/09 12:25:35;;;;;;;2.63;0.70;;;13.90;85.70;;;;;;5051498;28;20135;-70
2022/04/09 12:28:00;;;;;;;7.88;3.47;;;13.60;84.00;;;;;;5040382;28;20513;-70
2022/04/09 12:30:42;;;;;;;4.80;0.95;;;12.70;87.50;;;;;;5034122;28;20048;-70
2022/04/09 12:33:10;;;;;;;8.43;1.15;;;11.80;90.30;;;;;;5049387;28;20120;-70
2022/04/09 12:35:36;;;;;;;6.18;0.85;;;11.00;91.10;;;;;;5050707;28;20179;-70
2022/04/09 12:38:02;;;;;;;4.63;0.73;;;10.30;92.30;;;;;;5049194;28;20155;-70
2022/04/09 12:40:29;;;;;;;5.32;0.80;;;9.70;93.20;;;;;;5050915;28;20045;-70
2022/04/09 12:42:55;;;;;;;3.78;0.40;;;9.40;94.10;;;;;;5034022;28;20048;-70
2022/04/09 12:45:23;;;;;;;5.18;0.60;;;9.10;94.80;;;;;;5049290;28;20051;-70
2022/04/09 12:47:54;;;;;;;4.38;0.75;;;9.00;95.20;;;;;;5049700;28;20057;-70
2022/04/09 12:50:34;;;;;;;4.43;0.70;;;9.00;95.80;;;;;;5051043;28;20052;-70
2022/04/09 12:53:02;;;;;;;4.82;0.75;;;8.90;95.60;;;;;;5050288;28;20075;-70
2022/04/09 12:55:30;;;;;;;3.33;0.50;;;9.30;95.80;;;;;;5051048;28;20168;-70